Time;durP1;ratioP1;P1;durP2;ratioP2;P2;SDS_P1;SDS_P2;PMS_P1;PMS_P2;Temp;Humidity;BMP_temperature;BMP_pressure;BME280_temperature;BME280_humidity;BME280_pressure;Samples;Min_cycle;Max_cycle;Signal;HPM_P1;HPM_P2
2021/08/26 00:00:31;;;;;;;22.67;11.90;;;;;;;;;;5018840;28;20680;-89
2021/08/26 00:05:48;;;;;;;24.60;12.90;;;;;;;;;;5036347;28;20204;-88
2021/08/26 00:08:20;;;;;;;22.93;12.00;;;9.10;99.90;;;;;;5037904;28;20191;-90
2021/08/26 00:10:46;;;;;;;24.70;12.93;;;9.10;99.90;;;;;;5020710;28;20180;-90
2021/08/26 00:13:12;;;;;;;22.83;12.37;;;;;;;;;;5037776;28;20177;-90
2021/08/26 00:15:46;;;;;;;20.40;11.13;;;9.10;99.90;;;;;;5058268;28;20240;-87
2021/08/26 00:18:12;;;;;;;21.20;11.17;;;;;;;;;;5058063;28;20212;-87
2021/08/26 00:20:38;;;;;;;22.27;12.43;;;;;;;;;;5057754;28;20208;-88
2021/08/26 00:23:05;;;;;;;19.83;11.37;;;8.90;99.90;;;;;;5058290;28;20175;-87
2021/08/26 00:25:31;;;;;;;19.83;11.27;;;;;;;;;;5040944;28;20175;-89
2021/08/26 00:27:57;;;;;;;23.53;11.10;;;;;;;;;;5044255;28;20263;-91
2021/08/26 00:30:23;;;;;;;25.30;11.87;;;;;;;;;;5036543;28;20184;-90
2021/08/26 00:32:49;;;;;;;22.57;12.50;;;;;;;;;;5036327;28;20193;-90
2021/08/26 00:35:15;;;;;;;20.30;11.80;;;;;;;;;;5038097;28;20201;-89
2021/08/26 00:37:41;;;;;;;22.43;11.63;;;;;;;;;;5022892;28;20593;-90
2021/08/26 00:40:07;;;;;;;23.80;13.03;;;;;;;;;;5039924;28;20192;-90
2021/08/26 00:42:35;;;;;;;20.40;12.27;;;9.00;99.90;;;;;;5034442;28;20319;-91
2021/08/26 00:45:02;;;;;;;20.47;12.43;;;;;;;;;;5018773;28;20646;-91
2021/08/26 00:47:28;;;;;;;22.40;12.60;;;;;;;;;;5036558;28;20223;-90
2021/08/26 00:49:54;;;;;;;26.63;12.43;;;8.90;99.90;;;;;;5033096;28;20192;-89
2021/08/26 00:52:21;;;;;;;21.57;12.50;;;8.90;99.90;;;;;;5034554;28;20206;-90
2021/08/26 00:54:48;;;;;;;24.20;12.83;;;;;;;;;;5037267;28;20173;-89
2021/08/26 00:57:14;;;;;;;21.90;12.60;;;;;;;;;;5034709;28;20189;-89
2021/08/26 00:59:43;;;;;;;21.63;13.67;;;8.90;99.90;;;;;;5034107;28;20180;-89
2021/08/26 01:02:23;;;;;;;23.77;13.83;;;9.00;99.90;;;;;;5043740;28;20204;-90
2021/08/26 01:04:51;;;;;;;24.97;13.70;;;9.00;99.90;;;;;;5033338;28;20185;-90
2021/08/26 01:07:34;;;;;;;22.10;13.00;;;9.00;99.90;;;;;;5016897;28;20714;-90
2021/08/26 01:10:07;;;;;;;27.83;13.73;;;9.00;99.90;;;;;;5020154;28;20168;-89
2021/08/26 01:12:39;;;;;;;24.20;13.90;;;9.10;99.90;;;;;;5034539;28;20200;-89
2021/08/26 01:15:08;;;;;;;30.27;15.13;;;9.10;99.90;;;;;;5021785;28;20211;-89
2021/08/26 01:17:34;;;;;;;27.97;15.33;;;;;;;;;;5034600;28;20648;-89
2021/08/26 01:20:03;;;;;;;27.83;15.23;;;9.20;99.90;;;;;;5038250;28;20404;-89
2021/08/26 01:22:30;;;;;;;28.13;15.30;;;9.30;99.90;;;;;;5019442;28;20184;-87
2021/08/26 01:25:08;;;;;;;28.73;15.37;;;9.40;99.90;;;;;;5021389;28;20264;-89
2021/08/26 01:27:48;;;;;;;28.63;15.47;;;9.50;99.90;;;;;;5022136;28;20211;-89
2021/08/26 01:30:21;;;;;;;28.00;16.60;;;9.50;99.90;;;;;;5018845;28;20163;-89
2021/08/26 01:32:54;;;;;;;29.20;16.73;;;9.60;99.90;;;;;;5033544;28;20224;-89
2021/08/26 01:35:25;;;;;;;29.83;17.00;;;9.70;99.90;;;;;;5033433;28;20196;-89
2021/08/26 01:37:52;;;;;;;27.63;15.43;;;9.70;99.90;;;;;;5033502;28;20179;-89
2021/08/26 01:40:34;;;;;;;28.13;16.57;;;9.70;99.90;;;;;;5032331;28;20275;-89
2021/08/26 01:43:09;;;;;;;34.73;17.93;;;9.70;99.90;;;;;;5018077;28;20633;-89
2021/08/26 01:45:36;;;;;;;30.37;17.07;;;;;;;;;;5018705;28;20176;-88
2021/08/26 01:48:03;;;;;;;32.20;17.20;;;;;;;;;;5037933;28;20185;-89
2021/08/26 01:50:29;;;;;;;30.13;16.80;;;;;;;;;;5034276;28;20188;-89
2021/08/26 01:52:55;;;;;;;29.60;15.10;;;;;;;;;;5034417;28;20176;-89
2021/08/26 01:55:21;;;;;;;26.43;16.10;;;9.80;99.90;;;;;;5034807;28;20172;-89
2021/08/26 01:57:48;;;;;;;34.23;16.50;;;;;;;;;;5037372;28;20177;-88
2021/08/26 02:00:14;;;;;;;30.80;16.43;;;9.90;99.90;;;;;;5038530;28;20185;-89
2021/08/26 02:02:40;;;;;;;27.53;15.23;;;;;;;;;;5019464;28;20181;-89
2021/08/26 02:05:07;;;;;;;32.30;16.80;;;;;;;;;;5032183;28;20514;-89
2021/08/26 02:07:33;;;;;;;27.90;16.03;;;;;;;;;;5032840;28;20180;-90
2021/08/26 02:10:01;;;;;;;28.77;15.33;;;;;;;;;;5033482;28;20188;-90
2021/08/26 02:12:27;;;;;;;32.70;16.87;;;;;;;;;;5034053;28;20173;-89
2021/08/26 02:14:53;;;;;;;29.20;16.37;;;;;;;;;;5033637;28;20180;-89
2021/08/26 02:17:19;;;;;;;31.00;16.33;;;;;;;;;;5034390;28;20197;-90
2021/08/26 02:19:45;;;;;;;32.10;16.43;;;;;;;;;;5037048;28;20328;-90
2021/08/26 02:22:11;;;;;;;30.50;15.37;;;;;;;;;;5033620;28;20681;-90
2021/08/26 02:24:37;;;;;;;31.13;16.17;;;;;;;;;;5034543;28;20176;-89
2021/08/26 02:27:03;;;;;;;28.90;15.07;;;;;;;;;;5036263;28;20191;-89
2021/08/26 02:29:29;;;;;;;33.10;17.23;;;;;;;;;;5036390;28;20342;-90
2021/08/26 02:31:55;;;;;;;30.87;16.50;;;;;;;;;;5035729;28;20634;-90
2021/08/26 02:34:24;;;;;;;30.20;16.63;;;;;;;;;;5031493;28;20241;-90
2021/08/26 02:36:50;;;;;;;30.97;15.73;;;;;;;;;;5016251;28;20259;-88
2021/08/26 02:39:16;;;;;;;32.33;16.63;;;;;;;;;;5015352;28;20185;-89
2021/08/26 02:41:42;;;;;;;29.83;16.50;;;;;;;;;;5015364;28;20231;-89
2021/08/26 02:44:08;;;;;;;29.33;16.93;;;;;;;;;;5016901;28;20239;-89
2021/08/26 02:46:34;;;;;;;28.37;16.00;;;;;;;;;;4999643;28;20193;-88
2021/08/26 02:49:00;;;;;;;32.93;16.23;;;;;;;;;;5016810;28;20231;-89
2021/08/26 02:51:25;;;;;;;26.03;15.83;;;9.90;99.90;;;;;;5017137;28;20626;-89
2021/08/26 02:53:52;;;;;;;29.77;17.20;;;;;;;;;;4999427;28;20247;-89
2021/08/26 02:56:18;;;;;;;29.47;16.77;;;;;;;;;;5015526;28;20181;-88
2021/08/26 02:58:44;;;;;;;30.53;16.37;;;;;;;;;;5015099;28;20543;-89
2021/08/26 03:01:10;;;;;;;30.03;16.07;;;;;;;;;;5014876;28;20209;-88
2021/08/26 03:03:36;;;;;;;30.20;16.20;;;;;;;;;;5015137;28;20520;-89
2021/08/26 03:06:02;;;;;;;39.77;17.17;;;;;;;;;;5016218;28;20181;-88
2021/08/26 03:08:28;;;;;;;31.33;15.97;;;;;;;;;;4999029;28;20250;-89
2021/08/26 03:10:54;;;;;;;34.07;16.30;;;;;;;;;;5015791;28;20259;-88
2021/08/26 03:13:20;;;;;;;31.07;15.83;;;;;;;;;;5014858;28;20212;-89
2021/08/26 03:15:46;;;;;;;28.00;15.60;;;;;;;;;;5000108;28;20213;-88
2021/08/26 03:18:12;;;;;;;29.20;15.83;;;;;;;;;;5014703;28;20192;-88
2021/08/26 03:20:38;;;;;;;33.70;15.87;;;;;;;;;;5014523;28;20283;-89
2021/08/26 03:23:05;;;;;;;26.97;14.03;;;;;;;;;;5015931;28;20277;-89
2021/08/26 03:25:31;;;;;;;30.00;15.40;;;;;;;;;;5015621;28;20189;-90
2021/08/26 03:27:57;;;;;;;28.33;15.33;;;;;;;;;;5015351;28;20248;-88
2021/08/26 03:30:23;;;;;;;28.33;15.17;;;;;;;;;;5014768;28;20577;-87
2021/08/26 03:32:49;;;;;;;34.03;16.63;;;9.80;99.90;;;;;;5016645;28;20247;-89
2021/08/26 03:35:15;;;;;;;28.57;15.50;;;;;;;;;;5017329;28;20263;-89
2021/08/26 03:37:41;;;;;;;26.67;15.20;;;9.90;99.90;;;;;;5034249;28;20177;-89
2021/08/26 03:40:07;;;;;;;25.13;15.37;;;10.10;99.90;;;;;;5017663;28;20622;-89
2021/08/26 03:42:33;;;;;;;31.90;14.93;;;9.80;99.90;;;;;;5035588;28;20185;-89
2021/08/26 03:44:59;;;;;;;31.57;14.60;;;;;;;;;;5033664;28;20314;-88
2021/08/26 03:47:25;;;;;;;27.47;15.10;;;9.90;99.90;;;;;;5035464;28;20169;-89
2021/08/26 03:49:51;;;;;;;29.63;14.47;;;10.00;99.90;;;;;;5024597;28;20181;-88
2021/08/26 03:52:17;;;;;;;25.80;14.40;;;;;;;;;;5038002;28;20185;-89
2021/08/26 03:54:42;;;;;;;30.27;14.33;;;9.70;99.90;;;;;;5036285;28;20183;-89
2021/08/26 03:57:09;;;;;;;27.40;13.23;;;;;;;;;;5017895;28;20602;-89
2021/08/26 03:59:34;;;;;;;30.90;15.87;;;9.80;99.90;;;;;;5034067;28;20279;-89
2021/08/26 04:02:00;;;;;;;23.73;13.07;;;;;;;;;;5000489;28;20724;-88
2021/08/26 04:04:26;;;;;;;24.20;12.07;;;10.20;99.90;;;;;;5033731;28;20189;-88
2021/08/26 04:06:52;;;;;;;21.30;12.67;;;;;;;;;;5033647;28;20180;-88
2021/08/26 04:09:18;;;;;;;22.03;13.03;;;;;;;;;;5034364;28;20634;-89
2021/08/26 04:11:44;;;;;;;21.00;12.37;;;10.40;99.90;;;;;;5034871;28;20676;-89
2021/08/26 04:14:10;;;;;;;25.98;12.85;;;;;;;;;;5033463;28;20189;-87
2021/08/26 04:16:35;;;;;;;22.17;12.30;;;10.40;99.90;;;;;;5035382;28;20184;-88
2021/08/26 04:19:02;;;;;;;25.03;12.37;;;;;;;;;;5016881;28;20508;-88
2021/08/26 04:21:27;;;;;;;24.17;13.03;;;10.60;99.90;;;;;;5032762;28;20228;-87
2021/08/26 04:23:53;;;;;;;37.07;12.43;;;;;;;;;;5015292;28;20523;-88
2021/08/26 04:26:19;;;;;;;21.73;12.60;;;;;;;;;;5033203;28;20258;-88
2021/08/26 04:28:46;;;;;;;26.50;12.63;;;11.00;99.90;;;;;;5015644;28;20184;-87
2021/08/26 04:31:11;;;;;;;25.42;11.63;;;11.10;99.90;;;;;;5015415;28;20190;-87
2021/08/26 04:33:37;;;;;;;26.23;12.17;;;;;;;;;;5033314;28;20232;-87
2021/08/26 04:36:04;;;;;;;19.60;11.50;;;;;;;;;;5031978;28;20188;-87
2021/08/26 04:38:30;;;;;;;22.55;11.35;;;;;;;;;;5017151;28;20185;-86
2021/08/26 04:40:55;;;;;;;23.50;11.27;;;11.60;99.90;;;;;;5034004;28;20204;-87
2021/08/26 04:43:21;;;;;;;17.40;10.48;;;11.40;99.90;;;;;;5015291;28;20645;-88
2021/08/26 04:45:47;;;;;;;18.70;10.80;;;11.70;99.90;;;;;;5015506;28;20184;-87
2021/08/26 04:48:13;;;;;;;20.92;11.07;;;;;;;;;;5014643;28;20183;-87
2021/08/26 04:50:39;;;;;;;22.60;10.30;;;;;;;;;;5031887;28;20200;-88
2021/08/26 04:53:04;;;;;;;18.63;10.05;;;11.60;99.90;;;;;;5015595;28;20203;-87
2021/08/26 04:55:30;;;;;;;26.17;11.07;;;11.90;99.90;;;;;;5031694;28;20626;-87
2021/08/26 04:57:56;;;;;;;20.90;10.35;;;;;;;;;;5032059;28;20177;-86
2021/08/26 05:00:22;;;;;;;18.30;10.15;;;12.20;99.90;;;;;;5032576;28;20184;-86
2021/08/26 05:02:48;;;;;;;16.05;9.57;;;;;;;;;;5033032;28;20192;-85
2021/08/26 05:05:13;;;;;;;16.17;9.77;;;12.60;99.90;;;;;;5014963;28;20203;-84
2021/08/26 05:07:39;;;;;;;22.70;10.48;;;;;;;;;;5033027;28;20629;-86
2021/08/26 05:10:06;;;;;;;19.40;9.85;;;;;;;;;;5031823;28;20621;-86
2021/08/26 05:12:32;;;;;;;20.15;10.35;;;;;;;;;;5032394;28;20710;-85
2021/08/26 05:14:58;;;;;;;18.23;10.18;;;;;;;;;;5031526;28;20189;-87
2021/08/26 05:17:24;;;;;;;21.90;10.80;;;;;;;;;;5031303;28;20184;-86
2021/08/26 05:19:50;;;;;;;18.63;10.38;;;12.90;99.90;;;;;;5032710;28;20177;-85
2021/08/26 05:22:16;;;;;;;18.40;10.18;;;;;;;;;;5031344;28;20204;-87
2021/08/26 05:24:42;;;;;;;16.17;9.25;;;;;;;;;;5031342;28;20211;-85
2021/08/26 05:27:08;;;;;;;20.50;9.52;;;;;;;;;;5014845;28;20272;-85
2021/08/26 05:29:34;;;;;;;21.42;10.70;;;12.60;99.90;;;;;;5014884;28;20611;-86
2021/08/26 05:32:00;;;;;;;19.83;10.07;;;;;;;;;;5032560;28;20173;-86
2021/08/26 05:34:25;;;;;;;16.23;9.38;;;12.30;99.90;;;;;;5031235;28;20236;-86
2021/08/26 05:36:51;;;;;;;16.77;10.10;;;;;;;;;;5032407;28;20181;-86
2021/08/26 05:39:17;;;;;;;19.55;10.40;;;12.10;99.90;;;;;;5014716;28;20751;-87
2021/08/26 05:41:46;;;;;;;22.85;10.25;;;;;;;;;;4997674;28;20216;-86
2021/08/26 05:44:15;;;;;;;15.38;9.00;;;11.70;99.90;;;;;;5015221;28;20191;-85
2021/08/26 05:46:42;;;;;;;18.20;10.40;;;12.30;99.90;;;;;;5032994;28;20173;-87
2021/08/26 05:49:08;;;;;;;20.42;9.85;;;12.50;99.90;;;;;;5015633;28;20188;-86
2021/08/26 05:51:34;;;;;;;16.92;10.63;;;;;;;;;;5011156;28;20176;-86
2021/08/26 05:54:00;;;;;;;28.70;14.93;;;11.90;99.90;;;;;;5040871;28;20686;-86
2021/08/26 05:56:27;;;;;;;19.05;9.88;;;12.40;99.90;;;;;;5031498;28;20208;-87
2021/08/26 05:58:53;;;;;;;29.65;11.65;;;12.30;99.90;;;;;;5015373;28;20219;-87
2021/08/26 06:01:18;;;;;;;25.77;11.70;;;12.50;99.90;;;;;;5019207;28;20212;-86
2021/08/26 06:03:44;;;;;;;19.88;10.27;;;;;;;;;;5037005;28;20703;-86
2021/08/26 06:06:10;;;;;;;18.30;10.60;;;12.60;99.90;;;;;;5038189;28;20765;-86
2021/08/26 06:08:36;;;;;;;18.73;10.98;;;;;;;;;;5035764;28;20310;-87
2021/08/26 06:11:02;;;;;;;18.63;9.88;;;12.60;99.90;;;;;;5036463;28;20610;-88
2021/08/26 06:13:27;;;;;;;18.50;10.57;;;12.40;99.90;;;;;;5019125;28;20264;-88
2021/08/26 06:15:53;;;;;;;27.38;10.65;;;;;;;;;;5020090;28;20185;-87
2021/08/26 06:18:21;;;;;;;20.15;10.93;;;;;;;;;;5035288;28;20188;-87
2021/08/26 06:20:48;;;;;;;19.35;10.52;;;12.50;99.90;;;;;;5035168;28;20204;-88
2021/08/26 06:23:14;;;;;;;22.10;10.48;;;;;;;;;;5020093;28;20185;-88
2021/08/26 06:25:39;;;;;;;18.92;9.98;;;12.70;99.90;;;;;;5036872;28;20181;-87
2021/08/26 06:28:05;;;;;;;16.77;10.18;;;12.70;99.90;;;;;;5036798;28;20645;-87
2021/08/26 06:30:31;;;;;;;21.17;10.45;;;;;;;;;;5037694;28;20270;-87
2021/08/26 06:32:57;;;;;;;20.10;10.02;;;12.10;99.90;;;;;;5039778;28;20236;-88
2021/08/26 06:35:23;;;;;;;17.60;10.07;;;12.60;99.90;;;;;;5034714;28;20180;-88
2021/08/26 06:37:49;;;;;;;16.48;9.68;;;;;;;;;;5037716;28;20515;-88
2021/08/26 06:40:14;;;;;;;16.40;9.85;;;12.70;99.90;;;;;;5020021;28;20575;-87
2021/08/26 06:42:40;;;;;;;20.55;10.77;;;;;;;;;;5002736;28;20184;-87
2021/08/26 06:45:07;;;;;;;18.02;9.43;;;12.30;99.90;;;;;;5036070;28;20184;-87
2021/08/26 06:47:32;;;;;;;22.23;10.30;;;12.40;99.90;;;;;;5001598;28;20212;-87
2021/08/26 06:49:58;;;;;;;19.80;9.95;;;;;;;;;;5018032;28;20220;-86
2021/08/26 06:52:24;;;;;;;17.65;10.75;;;;;;;;;;5001772;28;20250;-88
2021/08/26 06:54:50;;;;;;;19.52;10.10;;;;;;;;;;5035292;28;20360;-87
2021/08/26 06:57:16;;;;;;;16.00;9.55;;;;;;;;;;5035290;28;20188;-86
2021/08/26 06:59:42;;;;;;;19.65;10.93;;;12.20;99.90;;;;;;5035853;28;20265;-87
2021/08/26 07:02:08;;;;;;;18.30;10.35;;;;;;;;;;5020613;28;20209;-87
2021/08/26 07:04:34;;;;;;;17.70;10.75;;;12.60;99.90;;;;;;5035225;28;20307;-87
2021/08/26 07:07:00;;;;;;;18.27;10.55;;;;;;;;;;5017785;28;20223;-86
2021/08/26 07:09:26;;;;;;;20.52;11.00;;;;;;;;;;5017376;28;20195;-87
2021/08/26 07:11:52;;;;;;;16.70;10.52;;;;;;;;;;5034688;28;20274;-86
2021/08/26 07:14:18;;;;;;;17.83;10.45;;;12.50;99.90;;;;;;5017668;28;20184;-87
2021/08/26 07:16:44;;;;;;;21.20;10.93;;;;;;;;;;5017304;28;20744;-89
2021/08/26 07:19:10;;;;;;;18.30;10.68;;;;;;;;;;5034703;28;20176;-87
2021/08/26 07:21:36;;;;;;;29.48;13.45;;;12.40;99.90;;;;;;5033460;28;20655;-87
2021/08/26 07:24:05;;;;;;;33.15;14.82;;;12.50;99.90;;;;;;5017234;28;20191;-88
2021/08/26 07:26:30;;;;;;;33.83;14.85;;;12.70;99.90;;;;;;5033758;28;20180;-87
2021/08/26 07:28:56;;;;;;;33.25;16.10;;;;;;;;;;5017448;28;20184;-85
2021/08/26 07:31:22;;;;;;;33.97;16.30;;;12.20;99.90;;;;;;5033612;28;20634;-87
2021/08/26 07:33:48;;;;;;;28.92;15.40;;;;;;;;;;5016762;28;20282;-88
2021/08/26 07:36:15;;;;;;;22.67;13.20;;;;;;;;;;5034826;28;20177;-87
2021/08/26 07:38:40;;;;;;;26.77;12.73;;;12.40;99.90;;;;;;5035057;28;20205;-88
2021/08/26 07:41:06;;;;;;;23.30;12.95;;;12.20;99.90;;;;;;5033281;28;20243;-88
2021/08/26 07:43:35;;;;;;;18.35;11.45;;;12.40;99.90;;;;;;5034358;28;20185;-89
2021/08/26 07:46:00;;;;;;;19.42;11.18;;;12.60;99.90;;;;;;5034535;28;20645;-87
2021/08/26 07:48:26;;;;;;;18.95;10.70;;;;;;;;;;5033810;28;20185;-86
2021/08/26 07:50:53;;;;;;;29.50;10.95;;;11.80;99.90;;;;;;5035101;28;20177;-87
2021/08/26 07:53:22;;;;;;;21.67;12.88;;;12.60;99.90;;;;;;5035793;28;20181;-87
2021/08/26 07:55:47;;;;;;;21.42;11.23;;;12.40;99.90;;;;;;5034288;28;20177;-87
2021/08/26 07:58:13;;;;;;;22.70;11.00;;;12.30;99.90;;;;;;5034247;28;20669;-86
2021/08/26 08:00:39;;;;;;;20.00;11.23;;;;;;;;;;5016382;28;20208;-86
2021/08/26 08:03:05;;;;;;;24.83;12.15;;;12.10;99.90;;;;;;5035688;28;20172;-88
2021/08/26 08:05:31;;;;;;;19.77;10.88;;;12.20;99.90;;;;;;5016395;28;20177;-90
2021/08/26 08:07:57;;;;;;;19.90;10.68;;;12.40;99.90;;;;;;5033460;28;20271;-88
2021/08/26 08:10:23;;;;;;;20.15;10.60;;;12.00;99.90;;;;;;5016444;28;20187;-88
2021/08/26 08:12:49;;;;;;;23.35;11.10;;;;;;;;;;5034599;28;20180;-88
2021/08/26 08:15:15;;;;;;;20.27;11.68;;;12.20;99.90;;;;;;5032800;28;20177;-88
2021/08/26 08:17:41;;;;;;;20.25;11.27;;;12.30;99.90;;;;;;5034257;28;20181;-89
2021/08/26 08:20:08;;;;;;;20.75;11.95;;;12.20;99.90;;;;;;5035246;28;20219;-88
2021/08/26 08:22:35;;;;;;;19.90;11.50;;;12.30;99.90;;;;;;5021837;28;20208;-87
2021/08/26 08:25:01;;;;;;;18.65;10.50;;;12.30;99.90;;;;;;5036567;28;20204;-87
2021/08/26 08:27:26;;;;;;;18.77;11.02;;;12.30;99.90;;;;;;5034607;28;20725;-88
2021/08/26 08:29:52;;;;;;;17.60;11.23;;;12.30;99.90;;;;;;5035831;28;20222;-88
2021/08/26 08:32:18;;;;;;;18.05;10.68;;;;;;;;;;5017446;28;20195;-87
2021/08/26 08:34:43;;;;;;;19.35;11.40;;;12.20;99.90;;;;;;5033671;28;20239;-87
2021/08/26 08:37:09;;;;;;;18.13;10.55;;;12.60;99.90;;;;;;5036434;28;20184;-88
2021/08/26 08:39:35;;;;;;;22.38;10.95;;;;;;;;;;5019026;28;20184;-87
2021/08/26 08:42:01;;;;;;;22.27;11.82;;;;;;;;;;5040651;28;20665;-87
2021/08/26 08:44:27;;;;;;;19.88;11.50;;;12.20;99.90;;;;;;5057448;28;20183;-86
2021/08/26 08:46:57;;;;;;;21.92;12.30;;;12.70;99.90;;;;;;5057036;28;20184;-86
2021/08/26 08:49:23;;;;;;;18.08;11.55;;;12.60;99.90;;;;;;5056753;28;20184;-86
2021/08/26 08:51:54;;;;;;;20.13;10.90;;;12.60;99.90;;;;;;5056951;28;20349;-87
2021/08/26 08:54:23;;;;;;;20.75;11.50;;;12.60;99.90;;;;;;5045529;28;20181;-85
2021/08/26 08:56:48;;;;;;;20.00;11.68;;;12.50;99.90;;;;;;5028768;28;20347;-88
2021/08/26 08:59:15;;;;;;;18.92;12.00;;;;;;;;;;5041008;28;20221;-88
2021/08/26 09:01:52;;;;;;;20.80;11.00;;;12.60;99.90;;;;;;5015479;28;20220;-86
2021/08/26 09:04:18;;;;;;;19.75;11.82;;;12.50;99.90;;;;;;5033286;28;20179;-86
2021/08/26 09:06:44;;;;;;;22.45;11.60;;;;;;;;;;5036247;28;20172;-87
2021/08/26 09:09:10;;;;;;;20.90;11.50;;;12.90;99.90;;;;;;5017523;28;20187;-87
2021/08/26 09:11:37;;;;;;;17.85;10.98;;;12.90;99.90;;;;;;5032611;28;20188;-84
2021/08/26 09:14:10;;;;;;;19.58;11.73;;;12.60;99.90;;;;;;5016288;28;20590;-86
2021/08/26 09:16:38;;;;;;;22.70;11.50;;;13.00;99.90;;;;;;5033465;28;20191;-87
2021/08/26 09:19:29;;;;;;;16.98;11.70;;;12.80;99.90;;;;;;5015646;28;20629;-87
2021/08/26 09:21:55;;;;;;;21.85;12.00;;;13.00;99.90;;;;;;5032184;28;20196;-86
2021/08/26 09:24:21;;;;;;;21.23;11.45;;;13.30;99.90;;;;;;5016079;28;20192;-86
2021/08/26 09:26:48;;;;;;;19.55;10.63;;;13.00;99.90;;;;;;5032801;28;20181;-87
2021/08/26 09:29:14;;;;;;;20.02;11.10;;;13.00;99.90;;;;;;5015084;28;20256;-86
2021/08/26 09:31:43;;;;;;;18.23;11.45;;;13.00;99.90;;;;;;5015452;28;20180;-87
2021/08/26 09:34:11;;;;;;;21.13;11.93;;;13.10;99.90;;;;;;5035445;28;20228;-88
2021/08/26 09:36:46;;;;;;;22.50;11.60;;;13.00;99.90;;;;;;5037304;28;20215;-86
2021/08/26 09:39:23;;;;;;;21.00;11.65;;;13.50;99.90;;;;;;5036441;28;20172;-88
2021/08/26 09:42:03;;;;;;;20.15;12.18;;;13.60;99.90;;;;;;5018573;28;20650;-87
2021/08/26 09:44:35;;;;;;;21.50;10.70;;;13.70;99.90;;;;;;5035624;28;20212;-85
2021/08/26 09:47:09;;;;;;;16.50;10.27;;;13.40;99.90;;;;;;5036173;28;20172;-86
2021/08/26 09:49:40;;;;;;;18.75;10.98;;;13.60;99.90;;;;;;5036317;28;20222;-84
2021/08/26 09:52:08;;;;;;;18.02;11.05;;;13.00;99.90;;;;;;5019475;28;20180;-90
2021/08/26 09:54:42;;;;;;;18.73;11.55;;;13.30;99.90;;;;;;5038032;28;20681;-88
2021/08/26 09:57:25;;;;;;;20.52;10.30;;;13.50;99.90;;;;;;5038345;28;20161;-90
2021/08/26 09:59:58;;;;;;;16.70;10.75;;;13.50;99.90;;;;;;5037041;28;20187;-87
2021/08/26 10:02:26;;;;;;;18.50;11.30;;;13.40;99.90;;;;;;5018861;28;20215;-85
2021/08/26 10:04:53;;;;;;;17.90;11.57;;;13.40;99.90;;;;;;5036908;28;20180;-87
2021/08/26 10:07:19;;;;;;;21.92;11.80;;;13.40;99.90;;;;;;5001706;28;20208;-87
2021/08/26 10:09:46;;;;;;;19.48;11.57;;;13.90;99.90;;;;;;5019108;28;20180;-88
2021/08/26 10:12:13;;;;;;;16.88;11.23;;;13.80;99.90;;;;;;5037107;28;20318;-86
2021/08/26 10:14:41;;;;;;;18.63;11.85;;;13.90;99.90;;;;;;5036295;28;20176;-86
2021/08/26 10:17:08;;;;;;;17.10;10.38;;;13.90;99.90;;;;;;5034874;28;20326;-86
2021/08/26 10:19:35;;;;;;;19.83;11.35;;;13.80;99.90;;;;;;5036639;28;20187;-86
2021/08/26 10:22:01;;;;;;;17.50;11.40;;;14.20;99.90;;;;;;5018198;28;20266;-85
2021/08/26 10:24:27;;;;;;;18.83;11.48;;;13.70;99.90;;;;;;5035428;28;20250;-86
2021/08/26 10:27:18;;;;;;;17.90;11.13;;;14.00;99.90;;;;;;5018481;28;20208;-84
2021/08/26 10:29:49;;;;;;;19.30;11.68;;;14.00;99.90;;;;;;5034793;28;20177;-85
2021/08/26 10:32:18;;;;;;;23.08;10.93;;;14.20;99.90;;;;;;5036691;28;20176;-87
2021/08/26 10:35:12;;;;;;;20.63;11.93;;;14.60;99.90;;;;;;5036437;28;20304;-84
2021/08/26 10:37:54;;;;;;;16.10;10.88;;;14.30;99.90;;;;;;5036270;28;20189;-85
2021/08/26 10:40:26;;;;;;;20.88;11.52;;;14.80;99.90;;;;;;5036066;28;20172;-84
2021/08/26 10:42:53;;;;;;;20.58;11.50;;;14.60;99.90;;;;;;5035769;28;20176;-86
2021/08/26 10:45:26;;;;;;;17.80;10.68;;;14.80;99.90;;;;;;5017597;28;20181;-86
2021/08/26 10:47:52;;;;;;;16.27;10.02;;;15.00;99.90;;;;;;5035864;28;20169;-85
2021/08/26 10:50:26;;;;;;;14.80;9.63;;;14.90;99.90;;;;;;5036057;28;20173;-86
2021/08/26 10:52:59;;;;;;;15.45;9.82;;;15.20;99.90;;;;;;5017207;28;20172;-87
2021/08/26 10:55:32;;;;;;;18.08;10.15;;;15.30;99.90;;;;;;5017333;28;20544;-85
2021/08/26 10:58:16;;;;;;;16.17;9.63;;;14.90;99.90;;;;;;5017642;28;20172;-85
2021/08/26 11:00:46;;;;;;;19.52;10.32;;;15.20;99.90;;;;;;5035297;28;20212;-86
2021/08/26 11:03:34;;;;;;;28.42;17.85;;;14.70;99.90;;;;;;5018307;28;20187;-87
2021/08/26 11:06:12;;;;;;;14.32;8.93;;;14.90;99.90;;;;;;5035231;28;20195;-85
2021/08/26 11:08:39;;;;;;;16.25;9.20;;;15.00;99.90;;;;;;5035176;28;20195;-86
2021/08/26 11:11:29;;;;;;;14.35;9.43;;;15.10;99.90;;;;;;5034977;28;20243;-87
2021/08/26 11:14:05;;;;;;;14.75;8.68;;;14.90;99.90;;;;;;5034275;28;20185;-85
2021/08/26 11:16:38;;;;;;;14.23;8.38;;;15.00;99.90;;;;;;5034459;28;20226;-89
2021/08/26 11:19:04;;;;;;;16.23;9.65;;;15.50;99.90;;;;;;5035392;28;20205;-86
2021/08/26 11:21:44;;;;;;;13.65;9.00;;;15.00;99.90;;;;;;5035276;28;20691;-86
2021/08/26 11:24:30;;;;;;;19.25;9.85;;;15.00;99.90;;;;;;5034676;28;20222;-86
2021/08/26 11:27:04;;;;;;;15.43;8.52;;;14.80;99.90;;;;;;5017240;28;20194;-85
2021/08/26 11:29:31;;;;;;;18.40;9.80;;;14.50;99.90;;;;;;5035138;28;20171;-85
2021/08/26 11:31:57;;;;;;;15.73;9.80;;;;;;;;;;5017257;28;20180;-85
2021/08/26 11:34:36;;;;;;;15.77;9.60;;;14.50;99.90;;;;;;5034749;28;20594;-86
2021/08/26 11:37:05;;;;;;;15.63;10.27;;;14.50;99.90;;;;;;5016549;28;20275;-86
2021/08/26 11:39:38;;;;;;;16.85;10.13;;;15.00;99.90;;;;;;5034787;28;20252;-86
2021/08/26 11:42:26;;;;;;;16.77;9.80;;;14.90;99.90;;;;;;5034798;28;20711;-85
2021/08/26 11:45:12;;;;;;;19.38;9.90;;;15.10;99.90;;;;;;5035011;28;20160;-86
2021/08/26 11:47:41;;;;;;;17.52;9.68;;;15.00;99.90;;;;;;5034488;28;20252;-85
2021/08/26 11:50:18;;;;;;;14.90;9.10;;;14.80;99.90;;;;;;5034281;28;20164;-85
2021/08/26 11:52:46;;;;;;;13.48;9.07;;;15.20;99.90;;;;;;5016578;28;20203;-84
2021/08/26 11:55:12;;;;;;;18.35;10.05;;;15.00;99.90;;;;;;5016662;28;20538;-85
2021/08/26 11:57:38;;;;;;;15.00;9.10;;;15.20;99.90;;;;;;5032356;28;20263;-85
2021/08/26 12:00:15;;;;;;;13.60;8.95;;;14.90;99.90;;;;;;5034359;28;20177;-84
2021/08/26 12:02:48;;;;;;;15.68;9.50;;;15.00;99.90;;;;;;5034418;28;20664;-85
2021/08/26 12:05:14;;;;;;;14.27;9.43;;;15.50;99.90;;;;;;5033899;28;20161;-85
2021/08/26 12:07:45;;;;;;;13.68;9.68;;;15.00;99.90;;;;;;5034838;28;20181;-85
2021/08/26 12:10:24;;;;;;;16.58;9.68;;;15.10;99.90;;;;;;5034569;28;20184;-85
2021/08/26 12:13:01;;;;;;;15.35;9.52;;;15.10;99.90;;;;;;5034561;28;20230;-84
2021/08/26 12:15:31;;;;;;;15.15;10.20;;;15.00;99.90;;;;;;5016738;28;20591;-85
2021/08/26 12:18:06;;;;;;;20.58;13.77;;;14.80;99.90;;;;;;5034295;28;20169;-86
2021/08/26 12:20:35;;;;;;;16.77;10.05;;;14.80;99.90;;;;;;5016456;28;20635;-86
2021/08/26 12:23:03;;;;;;;14.48;8.68;;;14.70;99.90;;;;;;5015827;28;20607;-85
2021/08/26 12:25:38;;;;;;;13.88;8.73;;;14.70;99.90;;;;;;5016837;28;20188;-86
2021/08/26 12:28:09;;;;;;;14.20;8.93;;;14.60;99.90;;;;;;5034190;28;20610;-86
2021/08/26 12:30:43;;;;;;;12.75;8.32;;;14.80;99.90;;;;;;5033900;28;20625;-85
2021/08/26 12:33:11;;;;;;;14.02;8.35;;;14.30;99.90;;;;;;5016205;28;20223;-85
2021/08/26 12:35:55;;;;;;;14.13;7.93;;;14.60;99.90;;;;;;5033628;28;20226;-84
2021/08/26 12:38:31;;;;;;;11.27;7.57;;;14.90;99.90;;;;;;5033667;28;20168;-86
2021/08/26 12:40:59;;;;;;;11.55;8.07;;;14.80;99.90;;;;;;5034075;28;20208;-87
2021/08/26 12:43:38;;;;;;;13.98;7.55;;;14.90;99.90;;;;;;5036963;28;20180;-86
2021/08/26 12:46:09;;;;;;;12.20;7.00;;;14.60;99.90;;;;;;5016286;28;20176;-87
2021/08/26 12:48:37;;;;;;;10.80;7.03;;;14.80;99.90;;;;;;5033984;28;20638;-87
2021/08/26 12:51:11;;;;;;;14.35;9.00;;;14.80;99.90;;;;;;5033982;28;20214;-87
2021/08/26 12:53:38;;;;;;;10.80;7.18;;;15.20;99.90;;;;;;5018552;28;20181;-86
2021/08/26 12:56:16;;;;;;;14.15;7.88;;;14.90;99.90;;;;;;5034613;28;20183;-85
2021/08/26 12:59:06;;;;;;;12.15;6.80;;;15.30;99.90;;;;;;5034245;28;20161;-86
2021/08/26 13:01:34;;;;;;;12.65;7.22;;;14.90;99.90;;;;;;5016596;28;20209;-87
2021/08/26 13:04:01;;;;;;;15.13;8.50;;;14.80;99.90;;;;;;5016883;28;20260;-86
2021/08/26 13:06:41;;;;;;;13.18;6.35;;;14.70;99.90;;;;;;5033841;28;20168;-87
2021/08/26 13:09:25;;;;;;;11.13;6.95;;;14.70;99.90;;;;;;5032156;28;20650;-87
2021/08/26 13:11:50;;;;;;;13.45;7.43;;;14.70;99.90;;;;;;5016234;28;20184;-87
2021/08/26 13:14:16;;;;;;;11.20;6.95;;;;;;;;;;5033480;28;20188;-88
2021/08/26 13:16:42;;;;;;;10.55;7.28;;;14.60;99.90;;;;;;5015967;28;20699;-87